createdAt,value
2019-03-21T00:01:16.462Z,20.92
2019-03-21T00:03:49.601Z,20.30
2019-03-21T00:06:20.984Z,22.42
2019-03-21T00:08:52.359Z,19.05
2019-03-21T00:12:01.879Z,28.50
2019-03-21T00:14:45.291Z,23.67
2019-03-21T00:17:28.705Z,55.00
2019-03-21T00:19:59.987Z,51.73
2019-03-21T00:22:31.309Z,41.30
2019-03-21T00:25:02.759Z,39.73
2019-03-21T00:27:34.015Z,29.70
2019-03-21T00:30:08.536Z,35.78
2019-03-21T00:32:39.959Z,34.95
2019-03-21T00:35:12.053Z,28.47
2019-03-21T00:40:17.175Z,26.30
2019-03-21T00:42:48.915Z,24.05
2019-03-21T00:45:20.325Z,21.33
2019-03-21T00:47:51.792Z,23.57
2019-03-21T00:50:26.206Z,22.22
2019-03-21T00:52:57.666Z,24.60
2019-03-21T00:55:32.228Z,24.18
2019-03-21T00:58:03.583Z,22.02
2019-03-21T01:00:44.318Z,15.18
2019-03-21T01:03:15.648Z,23.10
2019-03-21T01:05:46.976Z,22.95
2019-03-21T01:08:18.312Z,16.27
2019-03-21T01:10:50.718Z,23.95
2019-03-21T01:13:22.759Z,26.27
2019-03-21T01:15:54.280Z,30.08
2019-03-21T01:18:25.744Z,36.58
2019-03-21T01:20:56.922Z,33.20
2019-03-21T01:23:28.303Z,30.60
2019-03-21T01:26:02.994Z,45.52
2019-03-21T01:28:34.212Z,67.20
2019-03-21T01:31:05.605Z,59.23
2019-03-21T01:33:36.958Z,56.98
2019-03-21T01:36:09.423Z,58.20
2019-03-21T01:38:40.834Z,59.70
2019-03-21T01:41:18.248Z,50.63
2019-03-21T01:43:49.632Z,47.58
2019-03-21T01:46:23.326Z,51.77
2019-03-21T01:48:54.648Z,66.12
2019-03-21T01:51:25.990Z,81.55
2019-03-21T01:53:57.322Z,85.65
2019-03-21T01:56:30.053Z,78.33
2019-03-21T01:59:01.512Z,68.22
2019-03-21T02:01:32.857Z,51.28
2019-03-21T02:04:04.259Z,43.85
2019-03-21T02:06:35.614Z,50.65
2019-03-21T02:09:08.473Z,44.48
2019-03-21T02:11:39.847Z,41.45
2019-03-21T02:14:11.194Z,48.50
2019-03-21T02:16:42.552Z,47.00
2019-03-21T02:19:13.828Z,42.03
2019-03-21T02:21:45.134Z,54.48
2019-03-21T02:24:16.554Z,48.75
2019-03-21T02:26:47.863Z,54.27
2019-03-21T02:29:19.283Z,54.20
2019-03-21T02:31:50.794Z,52.75
2019-03-21T02:34:22.331Z,49.23
2019-03-21T02:36:53.648Z,38.85
2019-03-21T02:39:24.954Z,44.50
2019-03-21T02:41:56.379Z,45.75
2019-03-21T02:44:27.733Z,57.88
2019-03-21T02:46:59.097Z,47.78
2019-03-21T02:49:30.365Z,69.22
2019-03-21T02:52:01.761Z,66.07
2019-03-21T02:54:33.008Z,67.15
2019-03-21T02:57:04.381Z,91.50
2019-03-21T02:59:36.696Z,83.67
2019-03-21T03:02:08.031Z,57.50
2019-03-21T03:04:39.351Z,72.42
2019-03-21T03:07:10.685Z,74.12
2019-03-21T03:09:42.052Z,63.42
2019-03-21T03:12:13.385Z,53.08
2019-03-21T03:14:44.646Z,66.62
2019-03-21T03:17:16.041Z,56.45
2019-03-21T03:19:47.433Z,55.03
2019-03-21T03:22:18.757Z,59.75
2019-03-21T03:24:50.094Z,63.20
2019-03-21T03:27:21.430Z,60.25
2019-03-21T03:29:52.822Z,69.58
2019-03-21T03:32:24.081Z,76.57
2019-03-21T03:34:55.469Z,79.70
2019-03-21T03:37:26.775Z,81.75
2019-03-21T03:39:58.004Z,81.05
2019-03-21T03:42:29.371Z,75.47
2019-03-21T03:45:00.628Z,79.95
2019-03-21T03:47:31.934Z,78.97
2019-03-21T03:50:03.348Z,65.52
2019-03-21T03:52:34.735Z,62.40
2019-03-21T03:55:09.106Z,79.92
2019-03-21T03:57:40.524Z,76.35
2019-03-21T04:00:17.744Z,63.15
2019-03-21T04:02:52.806Z,63.15
2019-03-21T04:05:24.223Z,62.33
2019-03-21T04:07:55.572Z,63.45
2019-03-21T04:10:30.041Z,41.08
2019-03-21T04:13:01.367Z,65.50
2019-03-21T04:15:33.748Z,68.45
2019-03-21T04:18:05.188Z,72.37
2019-03-21T04:20:48.339Z,82.42
2019-03-21T04:23:22.322Z,80.20
2019-03-21T04:25:56.918Z,66.07
2019-03-21T04:28:28.322Z,51.68
2019-03-21T04:30:59.728Z,51.25
2019-03-21T04:33:32.272Z,54.55
2019-03-21T04:36:03.546Z,54.98
2019-03-21T04:38:35.039Z,58.87
2019-03-21T04:41:06.401Z,56.95
2019-03-21T04:43:37.710Z,63.87
2019-03-21T04:46:09.104Z,58.83
2019-03-21T04:48:40.500Z,47.20
2019-03-21T04:51:11.859Z,53.25
2019-03-21T04:53:43.198Z,55.52
2019-03-21T04:56:14.640Z,58.13
2019-03-21T04:58:46.035Z,46.18
2019-03-21T05:01:17.374Z,31.77
2019-03-21T05:03:48.835Z,39.92
2019-03-21T05:06:20.247Z,40.15
2019-03-21T05:08:51.575Z,54.18
2019-03-21T05:11:22.944Z,55.88
2019-03-21T05:13:54.453Z,44.70
2019-03-21T05:16:25.915Z,42.80
2019-03-21T05:18:59.729Z,40.78
2019-03-21T05:21:31.141Z,39.03
2019-03-21T05:24:02.427Z,41.95
2019-03-21T05:26:36.024Z,41.42
2019-03-21T05:29:07.364Z,31.42
2019-03-21T05:31:38.718Z,29.30
2019-03-21T05:34:10.111Z,38.98
2019-03-21T05:36:41.397Z,39.48
2019-03-21T05:39:12.749Z,28.47
2019-03-21T05:41:44.109Z,33.10
2019-03-21T05:44:33.534Z,30.12
2019-03-21T05:47:04.884Z,31.77
2019-03-21T05:49:36.288Z,23.90
2019-03-21T05:52:07.754Z,29.55
2019-03-21T05:54:39.216Z,25.80
2019-03-21T05:57:10.585Z,28.52
2019-03-21T05:59:42.178Z,20.60
2019-03-21T06:02:13.466Z,22.45
2019-03-21T06:04:57.227Z,23.10
2019-03-21T06:07:37.605Z,24.32
2019-03-21T06:10:18.137Z,25.15
2019-03-21T06:16:09.077Z,34.73
2019-03-21T06:18:49.850Z,32.33
2019-03-21T06:21:30.164Z,25.60
2019-03-21T06:24:19.693Z,23.25
2019-03-21T06:26:55.131Z,25.72
2019-03-21T06:29:29.419Z,29.95
2019-03-21T06:32:00.756Z,36.95
2019-03-21T06:34:32.166Z,50.43
2019-03-21T06:37:03.533Z,38.10
2019-03-21T06:39:35.011Z,35.17
2019-03-21T06:42:08.211Z,31.30
2019-03-21T06:44:39.592Z,29.63
2019-03-21T06:47:11.138Z,43.63
2019-03-21T06:49:42.698Z,31.25
2019-03-21T06:52:14.039Z,11.88
2019-03-21T06:54:45.309Z,12.28
2019-03-21T06:57:16.652Z,11.30
2019-03-21T06:59:48.067Z,8.35
2019-03-21T07:02:19.490Z,9.65
2019-03-21T07:04:50.903Z,11.33
2019-03-21T07:07:22.342Z,14.20
2019-03-21T07:09:53.877Z,11.95
2019-03-21T07:12:28.400Z,13.58
2019-03-21T07:14:59.727Z,12.18
2019-03-21T07:17:31.685Z,14.10
2019-03-21T07:20:03.455Z,10.20
2019-03-21T07:22:34.765Z,14.87
2019-03-21T07:25:07.915Z,4.72
2019-03-21T07:27:39.305Z,8.50
2019-03-21T07:30:15.063Z,11.30
2019-03-21T07:32:46.424Z,11.43
2019-03-21T07:35:17.794Z,7.78
2019-03-21T07:37:49.176Z,11.97
2019-03-21T07:40:20.537Z,8.25
2019-03-21T07:42:52.053Z,9.90
2019-03-21T07:45:23.377Z,9.45
2019-03-21T07:47:54.791Z,5.12
2019-03-21T07:50:26.980Z,10.38
2019-03-21T07:52:58.370Z,8.08
2019-03-21T07:55:29.835Z,10.70
2019-03-21T07:58:01.095Z,12.90
2019-03-21T08:00:32.424Z,13.85
2019-03-21T08:03:03.774Z,9.58
2019-03-21T08:05:40.193Z,8.75
2019-03-21T08:08:08.169Z,10.08
2019-03-21T08:10:39.459Z,16.32
2019-03-21T08:13:10.811Z,17.52
2019-03-21T08:15:42.105Z,22.25
2019-03-21T08:18:13.562Z,23.95
2019-03-21T08:20:55.575Z,22.70
2019-03-21T08:23:17.879Z,37.95
2019-03-21T08:25:49.346Z,28.32
2019-03-21T08:28:20.793Z,53.68
2019-03-21T08:31:06.944Z,44.80
2019-03-21T08:33:38.296Z,28.77
2019-03-21T08:36:09.696Z,21.97
2019-03-21T08:38:41.079Z,26.00
2019-03-21T08:41:12.449Z,18.98
2019-03-21T08:43:43.895Z,26.15
2019-03-21T08:46:15.207Z,14.90
2019-03-21T08:48:46.638Z,14.80
2019-03-21T08:51:17.926Z,10.05
2019-03-21T08:53:49.308Z,11.30
2019-03-21T08:56:20.726Z,8.50
2019-03-21T08:58:52.076Z,19.67
2019-03-21T09:01:23.347Z,10.55
2019-03-21T09:03:54.616Z,8.43
2019-03-21T09:06:26.020Z,14.15
2019-03-21T09:08:57.456Z,15.58
2019-03-21T09:11:28.831Z,25.55
2019-03-21T09:14:00.193Z,18.05
2019-03-21T09:16:31.546Z,23.10
2019-03-21T09:19:02.879Z,15.43
2019-03-21T09:21:35.836Z,23.47
2019-03-21T09:24:07.183Z,13.45
2019-03-21T09:26:38.508Z,24.57
2019-03-21T09:29:09.915Z,17.42
2019-03-21T09:31:41.232Z,13.15
2019-03-21T09:34:12.663Z,15.83
2019-03-21T09:36:44.069Z,17.37
2019-03-21T09:39:15.246Z,15.18
2019-03-21T09:41:46.597Z,12.78
2019-03-21T09:44:28.530Z,20.97
2019-03-21T09:46:59.774Z,14.18
2019-03-21T09:49:31.148Z,24.05
2019-03-21T09:52:03.581Z,13.48
2019-03-21T09:54:36.069Z,15.28
2019-03-21T09:57:07.491Z,20.15
2019-03-21T09:59:38.836Z,18.07
2019-03-21T10:02:10.193Z,15.13
2019-03-21T10:04:41.505Z,19.12
2019-03-21T10:07:14.268Z,10.55
2019-03-21T10:09:45.621Z,16.70
2019-03-21T10:12:16.972Z,13.83
2019-03-21T10:14:48.387Z,14.40
2019-03-21T10:17:19.812Z,11.03
2019-03-21T10:19:51.073Z,11.70
2019-03-21T10:22:22.311Z,15.40
2019-03-21T10:24:54.248Z,9.23
2019-03-21T10:27:27.111Z,17.98
2019-03-21T10:29:58.561Z,24.40
2019-03-21T10:32:29.995Z,11.80
2019-03-21T10:35:01.256Z,13.90
2019-03-21T10:37:32.644Z,26.50
2019-03-21T10:40:04.590Z,15.28
2019-03-21T10:45:07.607Z,13.43
2019-03-21T10:47:38.852Z,14.85
2019-03-21T10:50:11.886Z,18.25
2019-03-21T10:52:43.223Z,15.53
2019-03-21T10:55:14.559Z,13.93
2019-03-21T10:57:45.892Z,16.17
2019-03-21T11:00:17.217Z,17.40
2019-03-21T11:02:48.548Z,18.02
2019-03-21T11:05:19.991Z,12.50
2019-03-21T11:07:52.914Z,14.73
2019-03-21T11:10:25.739Z,11.80
2019-03-21T11:12:58.048Z,16.80
2019-03-21T11:15:29.453Z,20.43
2019-03-21T11:18:00.808Z,19.55
2019-03-21T11:20:37.124Z,20.82
2019-03-21T11:23:08.596Z,23.95
2019-03-21T11:25:39.948Z,32.45
2019-03-21T11:28:11.335Z,23.90
2019-03-21T11:30:43.409Z,17.90
2019-03-21T11:33:16.105Z,30.65
2019-03-21T11:35:47.538Z,32.78
2019-03-21T11:38:19.103Z,17.80
2019-03-21T11:40:50.368Z,17.27
2019-03-21T11:43:21.751Z,13.95
2019-03-21T11:45:55.199Z,16.02
2019-03-21T11:48:26.382Z,15.40
2019-03-21T11:50:57.703Z,23.50
2019-03-21T11:53:29.014Z,21.62
2019-03-21T11:56:00.281Z,23.52
2019-03-21T11:58:31.798Z,20.68
2019-03-21T12:01:03.026Z,16.60
2019-03-21T12:03:34.391Z,18.10
2019-03-21T12:06:05.711Z,23.47
2019-03-21T12:08:37.122Z,19.55
2019-03-21T12:11:08.291Z,13.00
2019-03-21T12:13:39.694Z,24.45
2019-03-21T12:16:11.130Z,25.48
2019-03-21T12:18:42.540Z,23.95
2019-03-21T12:21:13.930Z,18.98
2019-03-21T12:23:45.452Z,20.60
2019-03-21T12:26:16.861Z,19.12
2019-03-21T12:28:48.194Z,26.15
2019-03-21T12:31:19.650Z,19.60
2019-03-21T12:33:51.177Z,21.17
2019-03-21T12:36:22.596Z,22.52
2019-03-21T12:38:53.989Z,22.75
2019-03-21T12:41:25.330Z,27.75
2019-03-21T12:43:56.544Z,18.30
2019-03-21T12:46:27.855Z,19.48
2019-03-21T12:48:59.238Z,18.85
2019-03-21T12:51:30.579Z,18.25
2019-03-21T12:54:02.389Z,20.17
2019-03-21T12:56:33.634Z,22.45
2019-03-21T12:59:05.023Z,29.55
2019-03-21T13:01:36.305Z,28.75
2019-03-21T13:04:07.741Z,25.15
2019-03-21T13:06:38.945Z,18.67
2019-03-21T13:09:10.265Z,16.97
2019-03-21T13:11:41.667Z,22.15
2019-03-21T13:14:13.108Z,19.75
2019-03-21T13:16:44.523Z,21.30
2019-03-21T13:19:15.945Z,23.87
2019-03-21T13:21:47.379Z,28.85
2019-03-21T13:24:19.679Z,25.75
2019-03-21T13:26:51.073Z,37.40
2019-03-21T13:29:25.001Z,35.95
2019-03-21T13:31:55.495Z,34.13
2019-03-21T13:34:26.900Z,36.48
2019-03-21T13:36:58.281Z,22.42
2019-03-21T13:39:29.567Z,30.32
2019-03-21T13:42:01.097Z,21.55
2019-03-21T13:44:32.424Z,17.50
2019-03-21T13:47:03.718Z,24.80
2019-03-21T13:49:35.053Z,31.45
2019-03-21T13:52:07.658Z,17.27
2019-03-21T13:54:39.040Z,20.35
2019-03-21T13:57:10.416Z,26.02
2019-03-21T13:59:41.733Z,21.52
2019-03-21T14:02:13.148Z,20.52
2019-03-21T14:04:44.544Z,25.08
2019-03-21T14:07:15.993Z,26.70
2019-03-21T14:09:47.328Z,28.90
2019-03-21T14:12:18.837Z,34.00
2019-03-21T14:14:50.029Z,33.92
2019-03-21T14:17:22.405Z,35.90
2019-03-21T14:19:53.865Z,41.13
2019-03-21T14:22:25.267Z,40.23
2019-03-21T14:24:56.608Z,33.05
2019-03-21T14:27:28.019Z,31.75
2019-03-21T14:30:01.530Z,38.15
2019-03-21T14:32:33.744Z,34.27
2019-03-21T14:35:07.264Z,56.20
2019-03-21T14:37:38.560Z,33.30
2019-03-21T14:40:16.488Z,39.33
2019-03-21T14:42:47.912Z,38.33
2019-03-21T14:45:19.211Z,38.13
2019-03-21T14:47:50.569Z,34.88
2019-03-21T14:50:22.459Z,40.12
2019-03-21T14:52:53.679Z,39.88
2019-03-21T14:55:25.083Z,51.98
2019-03-21T14:57:56.737Z,47.00
2019-03-21T15:00:28.134Z,39.08
2019-03-21T15:02:59.427Z,40.75
2019-03-21T15:05:30.670Z,34.60
2019-03-21T15:08:02.135Z,34.13
2019-03-21T15:10:33.651Z,32.17
2019-03-21T15:13:05.100Z,38.48
2019-03-21T15:15:36.370Z,29.63
2019-03-21T15:18:07.737Z,41.23
2019-03-21T15:20:39.061Z,46.63
2019-03-21T15:23:11.491Z,27.15
2019-03-21T15:25:42.911Z,28.85
2019-03-21T15:28:14.315Z,36.90
2019-03-21T15:30:45.754Z,31.25
2019-03-21T15:33:18.029Z,32.00
2019-03-21T15:35:49.498Z,36.05
2019-03-21T15:38:20.945Z,25.23
2019-03-21T15:40:52.400Z,36.80
2019-03-21T15:43:23.646Z,34.13
2019-03-21T15:45:55.111Z,30.80
2019-03-21T15:48:26.363Z,25.50
2019-03-21T15:51:04.226Z,24.87
2019-03-21T15:53:30.506Z,31.30
2019-03-21T15:56:01.882Z,27.75
2019-03-21T15:58:33.256Z,41.00
2019-03-21T16:01:04.635Z,33.00
2019-03-21T16:03:36.024Z,35.13
2019-03-21T16:06:07.398Z,30.27
2019-03-21T16:08:38.659Z,31.05
2019-03-21T16:11:09.967Z,30.27
2019-03-21T16:13:41.279Z,30.70
2019-03-21T16:16:12.559Z,29.82
2019-03-21T16:18:43.916Z,28.85
2019-03-21T16:21:15.310Z,29.65
2019-03-21T16:23:46.660Z,39.10
2019-03-21T16:26:17.872Z,35.17
2019-03-21T16:28:49.211Z,31.07
2019-03-21T16:31:20.510Z,37.48
2019-03-21T16:33:51.859Z,34.53
2019-03-21T16:36:23.357Z,38.83
2019-03-21T16:38:54.807Z,38.05
2019-03-21T16:41:26.138Z,28.25
2019-03-21T16:43:57.543Z,29.32
2019-03-21T16:46:28.835Z,32.55
2019-03-21T16:49:00.285Z,33.90
2019-03-21T16:51:32.701Z,34.95
2019-03-21T16:54:16.221Z,36.88
2019-03-21T16:56:37.109Z,40.70
2019-03-21T16:59:08.467Z,42.30
2019-03-21T17:01:39.873Z,42.70
2019-03-21T17:04:11.136Z,39.03
2019-03-21T17:06:42.519Z,48.15
2019-03-21T17:09:13.801Z,43.65
2019-03-21T17:11:45.102Z,46.77
2019-03-21T17:14:16.667Z,47.70
2019-03-21T17:16:47.925Z,40.45
2019-03-21T17:19:19.248Z,51.20
2019-03-21T17:21:50.710Z,44.10
2019-03-21T17:24:29.178Z,46.02
2019-03-21T17:26:54.966Z,50.15
2019-03-21T17:29:26.313Z,57.60
2019-03-21T17:31:57.755Z,54.70
2019-03-21T17:34:29.123Z,55.33
2019-03-21T17:37:00.504Z,51.02
2019-03-21T17:39:31.884Z,53.70
2019-03-21T17:42:03.627Z,54.67
2019-03-21T17:44:35.117Z,41.65
2019-03-21T17:47:06.544Z,55.45
2019-03-21T17:49:38.673Z,48.13
2019-03-21T17:52:10.031Z,58.20
2019-03-21T17:54:42.838Z,38.83
2019-03-21T17:57:14.216Z,36.08
2019-03-21T17:59:45.600Z,34.35
2019-03-21T18:02:16.950Z,38.10
2019-03-21T18:04:48.385Z,29.77
2019-03-21T18:07:19.763Z,29.42
2019-03-21T18:09:51.080Z,27.60
2019-03-21T18:12:23.641Z,27.22
2019-03-21T18:14:54.911Z,27.82
2019-03-21T18:17:26.328Z,25.92
2019-03-21T18:19:57.720Z,29.15
2019-03-21T18:22:29.057Z,37.33
2019-03-21T18:25:00.564Z,34.73
2019-03-21T18:27:31.921Z,30.62
2019-03-21T18:30:03.492Z,35.23
2019-03-21T18:32:35.876Z,36.28
2019-03-21T18:35:07.142Z,40.03
2019-03-21T18:37:38.477Z,34.78
2019-03-21T18:40:10.944Z,40.38
2019-03-21T18:42:42.330Z,33.05
2019-03-21T18:45:14.763Z,39.50
2019-03-21T18:47:46.102Z,43.35
2019-03-21T18:50:17.600Z,46.33
2019-03-21T18:52:48.927Z,33.42
2019-03-21T18:55:20.264Z,39.15
2019-03-21T18:57:53.968Z,34.38
2019-03-21T19:00:25.417Z,34.80
2019-03-21T19:02:56.731Z,54.50
2019-03-21T19:05:28.078Z,62.55
2019-03-21T19:07:59.486Z,52.93
2019-03-21T19:10:30.871Z,29.00
2019-03-21T19:13:02.322Z,29.48
2019-03-21T19:15:33.626Z,27.45
2019-03-21T19:18:04.936Z,29.35
2019-03-21T19:20:36.321Z,28.20
2019-03-21T19:23:07.648Z,29.30
2019-03-21T19:25:39.085Z,49.18
2019-03-21T19:28:10.454Z,42.53
2019-03-21T19:30:41.854Z,40.85
2019-03-21T19:33:13.114Z,36.00
2019-03-21T19:35:46.862Z,33.88
2019-03-21T19:38:17.861Z,28.87
2019-03-21T19:40:49.255Z,26.70
2019-03-21T19:43:20.802Z,23.27
2019-03-21T19:45:52.195Z,25.02
2019-03-21T19:48:24.579Z,15.85
2019-03-21T19:50:55.949Z,14.33
2019-03-21T19:53:28.983Z,14.25
2019-03-21T19:56:08.564Z,14.38
2019-03-21T19:58:33.475Z,13.72
2019-03-21T20:01:04.869Z,17.17
2019-03-21T20:03:37.473Z,20.27
2019-03-21T20:06:08.904Z,18.40
2019-03-21T20:08:40.327Z,13.58
2019-03-21T20:11:11.747Z,18.87
2019-03-21T20:13:43.066Z,15.72
2019-03-21T20:16:15.035Z,15.03
2019-03-21T20:18:46.428Z,14.13
2019-03-21T20:21:17.825Z,15.50
2019-03-21T20:23:49.266Z,18.05
2019-03-21T20:26:20.537Z,33.40
2019-03-21T20:28:52.017Z,30.62
2019-03-21T20:31:23.391Z,38.40
2019-03-21T20:33:54.684Z,52.83
2019-03-21T20:36:26.108Z,45.52
2019-03-21T20:38:57.447Z,57.23
2019-03-21T20:41:28.786Z,50.75
2019-03-21T20:44:00.115Z,25.97
2019-03-21T20:46:31.458Z,27.82
2019-03-21T20:49:02.839Z,35.73
2019-03-21T20:51:34.189Z,39.35
2019-03-21T20:54:05.461Z,39.75
2019-03-21T20:56:36.890Z,47.40
2019-03-21T20:59:08.351Z,52.62
2019-03-21T21:01:39.716Z,45.23
2019-03-21T21:04:11.542Z,40.43
2019-03-21T21:06:42.957Z,45.95
2019-03-21T21:09:14.354Z,53.98
2019-03-21T21:11:45.670Z,43.55
2019-03-21T21:14:17.009Z,36.15
2019-03-21T21:16:48.265Z,35.83
2019-03-21T21:19:19.624Z,29.92
2019-03-21T21:21:50.931Z,28.98
2019-03-21T21:24:23.473Z,26.77
2019-03-21T21:26:54.750Z,26.90
2019-03-21T21:29:26.151Z,22.77
2019-03-21T21:31:57.583Z,30.92
2019-03-21T21:34:28.976Z,29.95
2019-03-21T21:37:01.267Z,28.38
2019-03-21T21:39:32.625Z,41.68
2019-03-21T21:42:04.017Z,31.57
2019-03-21T21:44:35.334Z,29.65
2019-03-21T21:47:06.612Z,27.65
2019-03-21T21:49:37.995Z,18.75
2019-03-21T21:52:09.334Z,29.27
2019-03-21T21:54:40.655Z,38.20
2019-03-21T21:57:12.074Z,36.28
2019-03-21T21:59:43.404Z,28.10
2019-03-21T22:02:14.723Z,34.88
2019-03-21T22:04:46.020Z,35.38
2019-03-21T22:07:17.296Z,38.13
2019-03-21T22:09:48.708Z,28.87
2019-03-21T22:12:20.038Z,47.55
2019-03-21T22:14:53.480Z,44.95
2019-03-21T22:17:24.909Z,42.53
2019-03-21T22:19:56.278Z,40.25
2019-03-21T22:22:27.662Z,36.58
2019-03-21T22:24:59.176Z,43.90
2019-03-21T22:27:30.562Z,22.50
2019-03-21T22:30:04.235Z,31.02
2019-03-21T22:32:34.985Z,28.17
2019-03-21T22:35:07.394Z,32.23
2019-03-21T22:37:38.716Z,25.60
2019-03-21T22:40:14.591Z,30.90
2019-03-21T22:42:46.007Z,34.03
2019-03-21T22:45:17.633Z,33.45
2019-03-21T22:47:50.525Z,30.82
2019-03-21T22:50:21.989Z,32.45
2019-03-21T22:52:53.293Z,32.23
2019-03-21T22:55:24.698Z,34.85
2019-03-21T22:57:56.073Z,33.48
2019-03-21T23:00:35.072Z,30.48
2019-03-21T23:03:06.444Z,27.32
2019-03-21T23:05:37.793Z,32.95
2019-03-21T23:08:09.089Z,29.30
2019-03-21T23:10:40.331Z,31.00
2019-03-21T23:13:11.772Z,30.65
2019-03-21T23:15:43.043Z,32.38
2019-03-21T23:18:14.449Z,31.25
2019-03-21T23:20:45.679Z,30.05
2019-03-21T23:23:18.019Z,37.95
2019-03-21T23:25:49.350Z,33.10
2019-03-21T23:28:20.687Z,30.97
2019-03-21T23:30:52.035Z,21.75
2019-03-21T23:33:23.573Z,29.65
2019-03-21T23:35:54.998Z,28.85
2019-03-21T23:38:26.326Z,29.77
2019-03-21T23:40:58.640Z,28.80
2019-03-21T23:43:30.007Z,27.27
2019-03-21T23:46:01.379Z,29.45
2019-03-21T23:48:32.838Z,28.67
2019-03-21T23:51:04.164Z,29.07
2019-03-21T23:53:35.682Z,30.05
2019-03-21T23:56:07.039Z,24.47
2019-03-21T23:58:38.316Z,37.55
